createdAt,value
2023-02-03T00:00:09.525Z,0.30
2023-02-03T00:02:40.933Z,0.20
2023-02-03T00:05:10.661Z,0.20
2023-02-03T00:07:41.473Z,0.20
2023-02-03T00:10:10.794Z,0.40
2023-02-03T00:12:39.222Z,0.00
2023-02-03T00:15:08.629Z,-0.10
2023-02-03T00:17:36.969Z,-0.20
2023-02-03T00:20:05.912Z,-0.30
2023-02-03T00:22:34.353Z,-0.30
2023-02-03T00:25:04.502Z,-0.30
2023-02-03T00:27:33.934Z,-0.20
2023-02-03T00:30:02.360Z,0.00
2023-02-03T00:32:31.417Z,-0.30
2023-02-03T00:34:59.941Z,-0.30
2023-02-03T00:37:28.415Z,-0.40
2023-02-03T00:39:56.729Z,-0.40
2023-02-03T00:42:26.429Z,-0.50
2023-02-03T00:44:54.683Z,-0.50
2023-02-03T00:47:23.539Z,-0.60
2023-02-03T00:49:52.167Z,-0.50
2023-02-03T00:52:20.569Z,-0.60
2023-02-03T00:54:48.869Z,-0.50
2023-02-03T00:57:18.447Z,-0.20
2023-02-03T00:59:50.625Z,-0.50
2023-02-03T01:02:19.143Z,0.00
2023-02-03T01:04:47.559Z,-0.30
2023-02-03T01:07:15.937Z,-0.30
2023-02-03T01:09:44.252Z,-0.10
2023-02-03T01:12:12.730Z,-0.10
2023-02-03T01:14:42.376Z,0.00
2023-02-03T01:17:12.096Z,0.10
2023-02-03T01:19:40.307Z,0.00
2023-02-03T01:22:08.697Z,0.10
2023-02-03T01:24:36.983Z,0.40
2023-02-03T01:27:06.807Z,0.30
2023-02-03T01:29:35.524Z,0.10
2023-02-03T01:32:04.461Z,0.10
2023-02-03T01:34:34.230Z,0.10
2023-02-03T01:37:02.802Z,0.10
2023-02-03T01:39:31.165Z,0.10
2023-02-03T01:41:59.419Z,0.10
2023-02-03T01:44:41.503Z,0.10
2023-02-03T01:47:17.399Z,0.10
2023-02-03T01:49:51.083Z,0.10
2023-02-03T01:52:20.544Z,0.10
2023-02-03T01:54:52.007Z,0.10
2023-02-03T01:57:25.788Z,0.20
2023-02-03T01:59:57.687Z,0.10
2023-02-03T02:02:26.657Z,0.10
2023-02-03T02:05:03.972Z,0.70
2023-02-03T02:07:33.705Z,0.10
2023-02-03T02:10:02.443Z,0.10
2023-02-03T02:12:31.088Z,0.10
2023-02-03T02:15:00.256Z,0.10
2023-02-03T02:17:55.377Z,0.00
2023-02-03T02:20:35.771Z,-0.10
2023-02-03T02:23:49.439Z,-0.20
2023-02-03T02:26:44.644Z,-0.30
2023-02-03T02:29:43.387Z,-0.40
2023-02-03T02:32:24.991Z,-0.50
2023-02-03T02:35:02.053Z,-0.60
2023-02-03T02:37:42.666Z,-0.70
2023-02-03T02:40:21.427Z,-0.50
2023-02-03T02:43:01.851Z,-0.80
2023-02-03T02:45:33.753Z,-0.60
2023-02-03T02:48:09.352Z,-1.00
2023-02-03T02:50:42.515Z,-1.00
2023-02-03T02:53:12.883Z,-1.00
2023-02-03T02:55:44.658Z,-1.00
2023-02-03T02:58:15.879Z,-1.00
2023-02-03T03:00:46.708Z,-0.80
2023-02-03T03:03:18.591Z,-0.60
2023-02-03T03:05:52.301Z,-1.10
2023-02-03T03:08:31.837Z,-1.00
2023-02-03T03:11:03.075Z,-0.70
2023-02-03T03:13:35.492Z,-1.10
2023-02-03T03:16:07.780Z,-1.20
2023-02-03T03:18:43.573Z,-1.20
2023-02-03T03:21:17.315Z,-1.20
2023-02-03T03:23:50.792Z,-1.20
2023-02-03T03:26:28.006Z,-1.10
2023-02-03T03:29:02.142Z,-1.20
2023-02-03T03:31:30.683Z,-0.90
2023-02-03T03:34:00.719Z,-1.10
2023-02-03T03:36:32.327Z,-1.20
2023-02-03T03:39:06.229Z,-0.80
2023-02-03T03:41:42.302Z,-1.30
2023-02-03T03:44:16.476Z,-1.20
2023-02-03T03:46:50.074Z,-1.30
2023-02-03T03:49:21.835Z,-1.40
2023-02-03T03:51:53.135Z,-1.20
2023-02-03T03:54:25.169Z,-1.40
2023-02-03T03:56:59.375Z,-1.40
2023-02-03T03:59:32.086Z,-1.40
2023-02-03T04:02:04.700Z,-1.40
2023-02-03T04:04:38.666Z,-1.40
2023-02-03T04:07:07.150Z,-1.40
2023-02-03T04:09:37.176Z,-1.30
2023-02-03T04:12:06.833Z,-1.50
2023-02-03T04:14:40.898Z,-1.60
2023-02-03T04:17:10.688Z,-1.60
2023-02-03T04:19:40.466Z,-1.60
2023-02-03T04:22:08.895Z,-1.70
2023-02-03T04:24:37.237Z,-1.70
2023-02-03T04:27:05.620Z,-1.60
2023-02-03T04:29:33.987Z,-1.70
2023-02-03T04:32:02.507Z,-1.60
2023-02-03T04:34:30.841Z,-1.70
2023-02-03T04:37:00.591Z,-1.50
2023-02-03T04:39:28.991Z,-1.70
2023-02-03T04:41:57.312Z,-1.70
2023-02-03T04:44:25.678Z,-1.80
2023-02-03T04:46:53.947Z,-1.50
2023-02-03T04:49:22.310Z,-0.70
2023-02-03T04:51:50.869Z,-1.80
2023-02-03T04:54:20.612Z,-1.70
2023-02-03T04:56:50.981Z,-1.80
2023-02-03T04:59:19.245Z,-1.40
2023-02-03T05:01:47.603Z,-1.80
2023-02-03T05:04:16.118Z,-1.70
2023-02-03T05:06:44.451Z,-2.00
2023-02-03T05:09:12.953Z,-2.00
2023-02-03T05:11:42.749Z,-1.90
2023-02-03T05:14:11.123Z,-1.90
2023-02-03T05:16:39.483Z,-2.00
2023-02-03T05:19:08.951Z,-1.90
2023-02-03T05:21:37.599Z,-1.40
2023-02-03T05:24:07.997Z,-1.90
2023-02-03T05:26:37.128Z,-1.90
2023-02-03T05:29:06.965Z,-2.00
2023-02-03T05:31:35.414Z,-1.60
2023-02-03T05:34:04.090Z,-2.00
2023-02-03T05:36:32.364Z,-2.00
2023-02-03T05:39:00.733Z,-2.00
2023-02-03T05:41:46.556Z,-2.00
2023-02-03T05:44:16.348Z,-2.00
2023-02-03T05:46:44.700Z,-2.00
2023-02-03T05:49:13.128Z,-2.10
2023-02-03T05:51:42.068Z,-1.70
2023-02-03T05:54:10.813Z,-2.00
2023-02-03T05:56:39.510Z,-2.10
2023-02-03T05:59:08.354Z,-2.10
2023-02-03T06:01:38.190Z,-2.20
2023-02-03T06:04:07.113Z,-2.20
2023-02-03T06:06:35.914Z,-2.10
2023-02-03T06:09:07.006Z,-2.10
2023-02-03T06:11:35.967Z,-2.10
2023-02-03T06:14:04.650Z,-1.90
2023-02-03T06:16:33.412Z,-2.00
2023-02-03T06:19:03.170Z,-2.10
2023-02-03T06:21:31.472Z,-1.90
2023-02-03T06:23:59.840Z,-2.00
2023-02-03T06:26:28.368Z,-1.20
2023-02-03T06:28:56.831Z,-2.10
2023-02-03T06:31:26.380Z,-2.00
2023-02-03T06:33:57.306Z,-1.90
2023-02-03T06:36:27.293Z,-2.00
2023-02-03T06:38:55.693Z,-1.60
2023-02-03T06:41:28.667Z,-1.60
2023-02-03T06:43:57.145Z,-2.10
2023-02-03T06:46:29.900Z,-2.10
2023-02-03T06:48:58.284Z,-2.00
2023-02-03T06:51:32.219Z,-1.90
2023-02-03T06:54:00.845Z,-1.90
2023-02-03T06:56:29.316Z,-1.50
2023-02-03T06:58:57.933Z,-1.80
2023-02-03T07:01:27.120Z,-1.80
2023-02-03T07:03:57.962Z,-1.70
2023-02-03T07:06:30.078Z,-1.70
2023-02-03T07:09:00.785Z,-1.70
2023-02-03T07:11:30.471Z,-1.70
2023-02-03T07:13:59.507Z,-1.70
2023-02-03T07:16:28.645Z,-1.60
2023-02-03T07:18:56.946Z,-1.60
2023-02-03T07:21:25.380Z,-1.70
2023-02-03T07:23:55.174Z,-1.50
2023-02-03T07:26:25.294Z,-1.50
2023-02-03T07:28:56.463Z,-1.50
2023-02-03T07:31:24.835Z,-1.40
2023-02-03T07:33:53.294Z,-1.20
2023-02-03T07:36:21.871Z,-1.30
2023-02-03T07:38:50.236Z,-1.20
2023-02-03T07:41:20.158Z,-1.10
2023-02-03T07:43:48.594Z,-0.50
2023-02-03T07:46:17.257Z,-1.10
2023-02-03T07:48:47.848Z,-1.10
2023-02-03T07:51:16.298Z,-1.10
2023-02-03T07:53:44.841Z,-0.70
2023-02-03T07:56:13.708Z,-1.00
2023-02-03T07:58:43.580Z,-0.90
2023-02-03T08:01:13.734Z,-0.90
2023-02-03T08:03:42.661Z,-0.90
2023-02-03T08:06:11.339Z,-0.30
2023-02-03T08:08:40.195Z,-0.80
2023-02-03T08:11:08.797Z,-0.70
2023-02-03T08:13:37.213Z,-0.60
2023-02-03T08:16:21.999Z,-0.60
2023-02-03T08:18:50.476Z,-0.10
2023-02-03T08:21:18.827Z,-0.40
2023-02-03T08:23:47.350Z,-0.30
2023-02-03T08:26:15.913Z,-0.20
2023-02-03T08:28:44.281Z,-0.10
2023-02-03T08:31:13.409Z,0.00
2023-02-03T08:33:43.622Z,0.00
2023-02-03T08:36:12.752Z,0.20
2023-02-03T08:38:41.938Z,0.40
2023-02-03T08:41:11.676Z,0.30
2023-02-03T08:43:43.157Z,0.30
2023-02-03T08:46:12.972Z,0.20
2023-02-03T08:48:42.885Z,0.30
2023-02-03T08:51:12.901Z,0.20
2023-02-03T08:53:41.224Z,0.40
2023-02-03T08:56:12.594Z,0.40
2023-02-03T08:58:41.302Z,0.60
2023-02-03T09:01:11.554Z,0.40
2023-02-03T09:03:42.602Z,0.40
2023-02-03T09:06:13.313Z,0.50
2023-02-03T09:08:42.299Z,0.80
2023-02-03T09:11:11.732Z,0.60
2023-02-03T09:13:40.767Z,0.40
2023-02-03T09:16:10.035Z,1.00
2023-02-03T09:18:38.598Z,0.70
2023-02-03T09:21:13.917Z,0.80
2023-02-03T09:23:49.531Z,0.90
2023-02-03T09:26:18.560Z,1.00
2023-02-03T09:28:50.549Z,1.40
2023-02-03T09:31:19.872Z,0.30
2023-02-03T09:33:49.051Z,1.00
2023-02-03T09:36:34.181Z,1.70
2023-02-03T09:39:02.967Z,1.20
2023-02-03T09:41:50.801Z,1.20
2023-02-03T09:44:24.462Z,1.80
2023-02-03T09:46:58.259Z,1.40
2023-02-03T09:49:44.521Z,1.40
2023-02-03T09:52:20.478Z,0.80
2023-02-03T09:54:55.324Z,1.30
2023-02-03T09:57:26.674Z,1.40
2023-02-03T09:59:57.947Z,1.80
2023-02-03T10:02:45.495Z,1.80
2023-02-03T10:05:24.860Z,1.40
2023-02-03T10:08:15.910Z,1.30
2023-02-03T10:11:19.922Z,1.70
2023-02-03T10:13:59.064Z,1.40
2023-02-03T10:16:44.516Z,1.70
2023-02-03T10:19:20.863Z,1.80
2023-02-03T10:21:55.413Z,1.80
2023-02-03T10:24:41.579Z,1.60
2023-02-03T10:27:18.612Z,1.80
2023-02-03T10:29:56.503Z,2.40
2023-02-03T10:32:27.894Z,1.60
2023-02-03T10:35:06.940Z,1.80
2023-02-03T10:37:41.208Z,1.90
2023-02-03T10:40:18.731Z,1.70
2023-02-03T10:43:08.139Z,1.70
2023-02-03T10:45:39.811Z,1.80
2023-02-03T10:48:15.836Z,1.70
2023-02-03T10:50:47.735Z,1.80
2023-02-03T10:53:34.461Z,2.00
2023-02-03T10:56:32.688Z,1.70
2023-02-03T10:59:03.121Z,1.60
2023-02-03T11:01:42.878Z,1.90
2023-02-03T11:04:27.148Z,1.70
2023-02-03T11:07:00.268Z,1.70
2023-02-03T11:09:34.996Z,1.60
2023-02-03T11:12:25.913Z,1.60
2023-02-03T11:15:25.515Z,1.50
2023-02-03T11:17:55.747Z,1.50
2023-02-03T11:20:28.912Z,1.50
2023-02-03T11:22:57.716Z,1.40
2023-02-03T11:25:33.445Z,1.30
2023-02-03T11:28:07.592Z,1.80
2023-02-03T11:30:38.918Z,1.40
2023-02-03T11:33:19.304Z,1.70
2023-02-03T11:36:05.581Z,1.50
2023-02-03T11:38:38.655Z,1.50
2023-02-03T11:41:15.970Z,1.80
2023-02-03T11:43:50.900Z,1.60
2023-02-03T11:46:21.254Z,1.70
2023-02-03T11:49:11.276Z,1.60
2023-02-03T11:51:47.299Z,1.60
2023-02-03T11:54:29.195Z,1.60
2023-02-03T11:57:19.784Z,1.50
2023-02-03T12:00:13.296Z,1.50
2023-02-03T12:03:12.085Z,2.00
2023-02-03T12:06:12.125Z,1.50
2023-02-03T12:09:04.269Z,1.50
2023-02-03T12:11:44.695Z,1.40
2023-02-03T12:14:25.326Z,1.60
2023-02-03T12:17:30.418Z,1.60
2023-02-03T12:20:19.798Z,1.60
2023-02-03T12:23:01.658Z,1.50
2023-02-03T12:25:44.513Z,1.40
2023-02-03T12:28:33.399Z,1.40
2023-02-03T12:31:10.487Z,1.40
2023-02-03T12:33:44.754Z,1.40
2023-02-03T12:36:20.492Z,1.50
2023-02-03T12:38:56.137Z,1.30
2023-02-03T12:41:27.923Z,1.30
2023-02-03T12:44:02.934Z,1.20
2023-02-03T12:46:38.099Z,1.20
2023-02-03T12:49:17.802Z,1.20
2023-02-03T12:51:56.762Z,1.30
2023-02-03T12:54:35.675Z,1.40
2023-02-03T12:57:15.447Z,1.40
2023-02-03T12:59:51.678Z,1.00
2023-02-03T13:02:26.153Z,1.60
2023-02-03T13:05:01.790Z,0.90
2023-02-03T13:07:49.364Z,1.40
2023-02-03T13:10:23.947Z,0.80
2023-02-03T13:12:56.129Z,0.70
2023-02-03T13:15:30.839Z,0.60
2023-02-03T13:18:05.141Z,0.50
2023-02-03T13:20:36.235Z,0.50
2023-02-03T13:23:10.681Z,0.30
2023-02-03T13:25:52.327Z,0.20
2023-02-03T13:28:35.014Z,0.10
2023-02-03T13:31:26.646Z,0.10
2023-02-03T13:34:12.366Z,0.00
2023-02-03T13:37:06.336Z,0.00
2023-02-03T13:40:04.715Z,-0.10
2023-02-03T13:42:34.605Z,0.10
2023-02-03T13:45:10.608Z,-0.10
2023-02-03T13:47:38.978Z,-0.10
2023-02-03T13:50:17.708Z,-0.10
2023-02-03T13:52:48.791Z,-0.10
2023-02-03T13:55:31.153Z,-0.10
2023-02-03T13:57:59.730Z,-0.10
2023-02-03T14:01:02.295Z,-0.10
2023-02-03T14:03:47.529Z,-0.10
2023-02-03T14:07:04.072Z,-0.10
2023-02-03T14:09:59.821Z,-0.20
2023-02-03T14:12:40.304Z,-0.20
2023-02-03T14:15:33.737Z,-0.20
2023-02-03T14:18:33.827Z,-0.20
2023-02-03T14:21:27.318Z,-0.20
2023-02-03T14:24:04.776Z,-0.20
2023-02-03T14:26:41.427Z,-0.20
2023-02-03T14:29:24.554Z,-0.30
2023-02-03T14:32:01.476Z,-0.30
2023-02-03T14:34:36.796Z,-0.30
2023-02-03T14:37:17.976Z,-0.40
2023-02-03T14:40:18.338Z,-0.40
2023-02-03T14:43:14.093Z,-0.40
2023-02-03T14:46:25.028Z,-0.40
2023-02-03T14:49:31.848Z,-0.40
2023-02-03T14:52:27.885Z,-0.40
2023-02-03T14:55:12.134Z,-0.50
2023-02-03T14:57:47.886Z,-0.30
2023-02-03T15:13:33.310Z,-0.40
2023-02-03T15:16:32.985Z,-0.40
2023-02-03T15:23:02.005Z,-0.40
2023-02-03T15:32:13.176Z,-0.40
2023-02-03T15:34:44.782Z,-0.40
2023-02-03T15:37:19.088Z,-0.40
2023-02-03T15:39:58.234Z,-0.40
2023-02-03T15:42:37.559Z,0.20
2023-02-03T15:45:32.975Z,-0.50
2023-02-03T15:48:32.420Z,-0.50
2023-02-03T15:51:34.161Z,-0.50
2023-02-03T15:54:13.761Z,-0.30
2023-02-03T15:56:48.918Z,-0.60
2023-02-03T15:59:28.872Z,-0.50
2023-02-03T16:01:57.869Z,-0.40
2023-02-03T16:04:28.424Z,-0.50
2023-02-03T16:07:02.072Z,-0.40
2023-02-03T16:09:34.168Z,-0.50
2023-02-03T16:12:15.634Z,-0.60
2023-02-03T16:14:48.728Z,-0.50
2023-02-03T16:17:28.493Z,-1.40
2023-02-03T16:20:28.570Z,-0.50
2023-02-03T16:23:06.074Z,-0.50
2023-02-03T16:25:36.430Z,-0.60
2023-02-03T16:28:32.762Z,0.00
2023-02-03T16:31:22.445Z,-0.60
2023-02-03T16:34:09.480Z,-0.60
2023-02-03T16:37:02.668Z,-0.40
2023-02-03T16:39:53.612Z,0.00
2023-02-03T16:42:40.342Z,-0.50
2023-02-03T16:45:32.597Z,-0.50
2023-02-03T16:48:20.285Z,-0.50
2023-02-03T16:50:52.611Z,-0.50
2023-02-03T16:53:25.799Z,-0.50
2023-02-03T16:55:56.452Z,-0.40
2023-02-03T16:58:25.453Z,-0.20
2023-02-03T17:00:55.352Z,-0.50
2023-02-03T17:03:28.444Z,-0.50
2023-02-03T17:05:57.776Z,-0.50
2023-02-03T17:08:27.337Z,-0.50
2023-02-03T17:10:55.714Z,-0.10
2023-02-03T17:13:25.580Z,-0.40
2023-02-03T17:15:54.013Z,-0.50
2023-02-03T17:18:24.244Z,-0.50
2023-02-03T17:20:52.917Z,-0.30
2023-02-03T17:23:21.788Z,-0.40
2023-02-03T17:25:51.828Z,-0.50
2023-02-03T17:28:20.424Z,-0.40
2023-02-03T17:30:57.606Z,-0.40
2023-02-03T17:33:27.931Z,-0.40
2023-02-03T17:36:05.531Z,-0.30
2023-02-03T17:38:38.118Z,-0.40
2023-02-03T17:55:28.243Z,-0.30
2023-02-03T17:57:57.759Z,-0.30
2023-02-03T18:00:26.152Z,-0.40
2023-02-03T18:02:54.914Z,-0.30
2023-02-03T18:05:24.968Z,-0.30
2023-02-03T18:07:53.687Z,-0.30
2023-02-03T18:10:22.142Z,-0.40
2023-02-03T18:12:50.660Z,-0.40
2023-02-03T18:15:19.122Z,-0.30
2023-02-03T18:17:47.780Z,-0.30
2023-02-03T18:20:16.131Z,-0.40
2023-02-03T18:22:46.876Z,0.00
2023-02-03T18:25:17.416Z,-0.30
2023-02-03T18:27:46.082Z,-0.30
2023-02-03T18:30:17.710Z,-0.20
2023-02-03T18:32:47.250Z,-0.20
2023-02-03T18:35:18.817Z,-0.30
2023-02-03T18:37:48.707Z,-0.30
2023-02-03T18:40:17.479Z,-0.30
2023-02-03T18:42:45.942Z,-0.30
2023-02-03T18:45:14.368Z,-0.10
2023-02-03T18:47:43.047Z,-0.30
2023-02-03T18:50:17.064Z,-0.30
2023-02-03T18:52:46.220Z,-0.30
2023-02-03T18:55:18.096Z,-0.30
2023-02-03T18:57:46.868Z,-0.30
2023-02-03T19:00:16.700Z,-0.30
2023-02-03T19:02:45.243Z,-0.30
2023-02-03T19:05:15.576Z,-0.30
2023-02-03T19:07:43.948Z,-0.30
2023-02-03T19:10:13.082Z,-0.30
2023-02-03T19:12:43.011Z,-0.30
2023-02-03T19:15:11.991Z,-0.20
2023-02-03T19:17:40.326Z,-0.30
2023-02-03T19:20:10.095Z,-0.30
2023-02-03T19:22:38.632Z,-0.30
2023-02-03T19:25:07.918Z,-0.20
2023-02-03T19:27:36.446Z,-0.30
2023-02-03T19:30:06.757Z,-0.30
2023-02-03T19:32:35.038Z,-0.30
2023-02-03T19:35:03.428Z,-0.40
2023-02-03T19:37:31.746Z,-0.30
2023-02-03T19:40:01.109Z,-0.30
2023-02-03T19:42:29.469Z,-0.40
2023-02-03T19:44:58.873Z,-0.30
2023-02-03T19:47:28.731Z,-0.30
2023-02-03T19:49:57.763Z,-0.30
2023-02-03T19:52:26.430Z,0.10
2023-02-03T19:54:56.121Z,-0.30
2023-02-03T19:57:24.564Z,-0.30
2023-02-03T19:59:53.123Z,0.00
2023-02-03T20:02:21.559Z,-0.30
2023-02-03T20:04:51.534Z,0.60
2023-02-03T20:07:20.337Z,-0.10
2023-02-03T20:09:48.962Z,-0.30
2023-02-03T20:12:17.344Z,-0.30
2023-02-03T20:14:45.577Z,-0.20
2023-02-03T20:17:13.967Z,-0.30
2023-02-03T20:19:42.402Z,-0.30
2023-02-03T20:22:12.323Z,-0.10
2023-02-03T20:24:40.687Z,-0.30
2023-02-03T20:27:09.162Z,-0.30
2023-02-03T20:29:37.616Z,-0.30
2023-02-03T20:32:08.272Z,-0.20
2023-02-03T20:34:37.040Z,-0.30
2023-02-03T20:37:07.121Z,-0.30
2023-02-03T20:39:39.937Z,-0.30
2023-02-03T20:42:14.363Z,-0.20
2023-02-03T20:44:42.901Z,-0.40
2023-02-03T20:47:13.037Z,-0.30
2023-02-03T20:49:41.612Z,-0.40
2023-02-03T20:52:15.185Z,-0.40
2023-02-03T20:54:46.312Z,-0.40
2023-02-03T20:57:17.032Z,-0.40
2023-02-03T20:59:46.469Z,-0.40
2023-02-03T21:02:23.295Z,-0.40
2023-02-03T21:05:00.362Z,-0.40
2023-02-03T21:07:30.968Z,-0.20
2023-02-03T21:10:01.776Z,-0.40
2023-02-03T21:12:30.198Z,0.00
2023-02-03T21:15:01.763Z,-0.30
2023-02-03T21:17:30.277Z,-0.40
2023-02-03T21:19:59.194Z,-0.40
2023-02-03T21:22:30.337Z,-0.40
2023-02-03T21:25:01.448Z,-0.40
2023-02-03T21:27:32.160Z,-0.40
2023-02-03T21:30:02.241Z,-0.40
2023-02-03T21:32:38.086Z,-0.30
2023-02-03T21:35:24.075Z,-0.50
2023-02-03T21:37:55.917Z,-0.40
2023-02-03T21:40:28.718Z,-0.30
2023-02-03T21:42:58.197Z,-0.10
2023-02-03T21:45:38.158Z,-0.40
2023-02-03T21:48:29.769Z,-0.50
2023-02-03T21:51:01.591Z,-0.50
2023-02-03T21:53:35.235Z,-0.50
2023-02-03T21:56:24.254Z,-0.20
2023-02-03T21:58:57.212Z,-0.40
2023-02-03T22:01:26.284Z,-0.60
2023-02-03T22:03:55.922Z,-0.60
2023-02-03T22:06:27.382Z,-0.50
2023-02-03T22:08:57.496Z,-0.60
2023-02-03T22:11:30.040Z,-0.60
2023-02-03T22:13:58.917Z,-0.30
2023-02-03T22:16:29.087Z,-0.60
2023-02-03T22:18:58.119Z,-0.30
2023-02-03T22:21:27.089Z,-0.60
2023-02-03T22:23:55.574Z,-0.60
2023-02-03T22:26:24.015Z,-0.60
2023-02-03T22:28:55.161Z,-0.60
2023-02-03T22:31:33.323Z,-0.60
2023-02-03T22:34:02.927Z,-0.60
2023-02-03T22:36:31.305Z,-0.50
2023-02-03T22:38:59.707Z,-0.70
2023-02-03T22:41:28.177Z,-0.50
2023-02-03T22:43:58.291Z,-0.70
2023-02-03T22:46:26.888Z,-0.60
2023-02-03T22:48:55.296Z,-0.70
2023-02-03T22:51:23.830Z,-0.70
2023-02-03T22:53:52.140Z,-0.80
2023-02-03T22:56:20.466Z,-0.50
2023-02-03T22:58:48.940Z,-0.60
2023-02-03T23:01:20.804Z,-0.80
2023-02-03T23:03:49.157Z,0.10
2023-02-03T23:06:17.648Z,-0.10
2023-02-03T23:08:45.968Z,-0.80
2023-02-03T23:11:14.286Z,-0.80
2023-02-03T23:13:42.767Z,-0.80
2023-02-03T23:16:11.523Z,-0.70
2023-02-03T23:18:43.105Z,-0.60
2023-02-03T23:21:12.099Z,-0.70
2023-02-03T23:23:41.408Z,-0.80
2023-02-03T23:26:09.857Z,-0.80
2023-02-03T23:28:38.266Z,-0.70
2023-02-03T23:31:07.128Z,-0.90
2023-02-03T23:33:35.562Z,-0.90
2023-02-03T23:36:10.096Z,-0.90
2023-02-03T23:38:38.422Z,-0.90
2023-02-03T23:41:07.340Z,-0.60
2023-02-03T23:43:38.835Z,-0.60
2023-02-03T23:46:07.895Z,-0.90
2023-02-03T23:48:36.548Z,-0.90
2023-02-03T23:51:07.356Z,-1.00
2023-02-03T23:53:41.096Z,-1.00
2023-02-03T23:56:10.044Z,-1.00
2023-02-03T23:58:48.843Z,-1.00
